Time;durP1;ratioP1;P1;durP2;ratioP2;P2;SDS_P1;SDS_P2;PMS_P1;PMS_P2;Temp;Humidity;BMP_temperature;BMP_pressure;BME280_temperature;BME280_humidity;BME280_pressure;Samples;Min_cycle;Max_cycle;Signal;HPM_P1;HPM_P2
2021/12/19 00:00:41;;;;;;;3.75;2.58;;;;;;;;;;8283271;28;20042;-65
2021/12/19 00:08:51;;;;;;;2.35;1.95;;;;;;;;;;8286453;28;20029;-65
2021/12/19 00:12:52;;;;;;;2.25;2.05;;;;;;;;;;8286324;28;20032;-65
2021/12/19 00:16:53;;;;;;;2.35;2.10;;;;;;;;;;8284222;28;20498;-65
2021/12/19 00:20:54;;;;;;;2.40;2.20;;;;;;;;;;8287626;28;20499;-65
2021/12/19 00:24:54;;;;;;;2.95;2.63;;;;;;;;;;8285449;28;20022;-65
2021/12/19 00:28:54;;;;;;;3.00;2.20;;;;;;;;;;8285258;28;20910;-65
2021/12/19 00:32:55;;;;;;;2.10;1.90;;;;;;;;;;8283235;28;20037;-65
2021/12/19 00:36:55;;;;;;;1.95;1.70;;;;;;;;;;8288193;28;20014;-65
2021/12/19 00:40:57;;;;;;;1.45;1.35;;;;;;;;;;8284764;28;20751;-65
2021/12/19 00:45:01;;;;;;;1.42;1.33;;;;;;;;;;8285625;28;20022;-65
2021/12/19 00:49:01;;;;;;;;;;;;;;;;;;8292470;28;20207;-65
2021/12/19 00:53:02;;;;;;;1.20;1.10;;;;;;;;;;8292494;28;19971;-65
2021/12/19 00:57:02;;;;;;;1.10;1.00;;;;;;;;;;8293336;28;20155;-65
2021/12/19 01:01:03;;;;;;;1.30;1.17;;;;;;;;;;8290758;28;20087;-65
2021/12/19 01:05:05;;;;;;;1.02;1.00;;;;;;;;;;8292746;28;20036;-65
2021/12/19 01:09:05;;;;;;;1.30;1.20;;;;;;;;;;8289582;28;20672;-65
2021/12/19 01:13:05;;;;;;;1.60;1.50;;;;;;;;;;8290740;28;20033;-65
2021/12/19 01:17:07;;;;;;;2.20;2.00;;;;;;;;;;8291391;28;20112;-65
2021/12/19 01:21:08;;;;;;;2.40;2.20;;;;;;;;;;8288229;28;20338;-65
2021/12/19 01:25:08;;;;;;;6.38;2.22;;;;;;;;;;8287748;28;20720;-65
2021/12/19 01:29:10;;;;;;;1.92;1.73;;;;;;;;;;8291647;28;20029;-65
2021/12/19 01:33:10;;;;;;;2.08;1.88;;;;;;;;;;8289798;28;20039;-65
2021/12/19 01:37:10;;;;;;;1.57;1.47;;;;;;;;;;8292758;28;20143;-65
2021/12/19 01:41:10;;;;;;;1.50;1.40;;;;;;;;;;8290975;28;20284;-65
2021/12/19 01:45:12;;;;;;;1.38;1.27;;;;;;;;;;8289347;28;20029;-66
2021/12/19 01:49:13;;;;;;;1.80;1.50;;;;;;;;;;8288006;28;20046;-65
2021/12/19 01:53:13;;;;;;;3.40;2.78;;;;;;;;;;8280496;28;20748;-65
2021/12/19 01:57:14;;;;;;;2.60;2.40;;;;;;;;;;8288852;28;20400;-65
2021/12/19 02:01:14;;;;;;;2.40;1.75;;;;;;;;;;8287735;28;20497;-65
2021/12/19 02:05:14;;;;;;;1.90;1.45;;;;;;;;;;8294047;28;20034;-65
2021/12/19 02:09:16;;;;;;;2.15;1.67;;;;;;;;;;8288135;28;20470;-65
2021/12/19 02:13:16;;;;;;;3.75;2.97;;;;;;;;;;8288699;28;20085;-65
2021/12/19 02:17:16;;;;;;;3.15;2.50;;;;;;;;;;8287857;28;20048;-65
2021/12/19 02:21:17;;;;;;;5.63;4.32;;;;;;;;;;8288688;28;20042;-65
2021/12/19 02:25:17;;;;;;;5.80;4.32;;;;;;;;;;8291219;28;20025;-65
2021/12/19 02:29:17;;;;;;;4.90;3.17;;;;;;;;;;8289544;28;20104;-65
2021/12/19 02:33:21;;;;;;;2.97;2.30;;;;;;;;;;8288655;28;20277;-65
2021/12/19 02:50:06;;;;;;;5.70;4.40;;;;;;;;;;8291175;28;20874;-65
2021/12/19 02:54:07;;;;;;;3.95;3.10;;;;;;;;;;8288376;28;20016;-65
2021/12/19 02:58:07;;;;;;;3.80;2.95;;;;;;;;;;8288180;28;20125;-65
2021/12/19 03:02:07;;;;;;;3.75;2.67;;;;;;;;;;8286513;28;20042;-65
2021/12/19 03:06:07;;;;;;;4.33;2.57;;;;;;;;;;8287817;28;20021;-65
2021/12/19 03:18:42;;;;;;;4.75;3.50;;;;;;;;;;8289565;28;20067;-65
2021/12/19 03:22:42;;;;;;;4.50;3.80;;;;;;;;;;8286874;28;20025;-65
2021/12/19 03:26:42;;;;;;;4.93;4.00;;;;;;;;;;8289365;28;20402;-65
2021/12/19 03:30:44;;;;;;;5.13;4.30;;;;;;;;;;8288420;28;20287;-65
2021/12/19 03:34:44;;;;;;;3.38;3.08;;;;;;;;;;8287676;28;20127;-66
2021/12/19 03:38:45;;;;;;;3.85;3.50;;;;;;;;;;8287256;28;20650;-65
2021/12/19 03:42:47;;;;;;;3.17;2.55;;;;;;;;;;8285116;28;20729;-65
2021/12/19 03:46:47;;;;;;;4.03;3.03;;;;;;;;;;8286253;28;20133;-65
2021/12/19 03:50:49;;;;;;;3.15;2.85;;;;;;;;;;8285640;28;20059;-65
2021/12/19 03:54:49;;;;;;;2.30;2.10;;;;;;;;;;8284810;28;20126;-65
2021/12/19 03:58:51;;;;;;;2.50;2.30;;;;;;;;;;8287659;28;20025;-65
2021/12/19 04:02:53;;;;;;;2.90;2.33;;;;;;;;;;8284366;28;20033;-65
2021/12/19 04:06:54;;;;;;;2.80;2.50;;;;;;;;;;8286135;28;20034;-65
2021/12/19 04:10:55;;;;;;;3.30;3.00;;;;;;;;;;8288078;28;20036;-65
2021/12/19 04:14:55;;;;;;;3.28;2.85;;;;;;;;;;8287615;28;20030;-65
2021/12/19 04:18:56;;;;;;;5.70;4.38;;;;;;;;;;8287003;28;20033;-65
2021/12/19 04:22:56;;;;;;;3.95;3.50;;;;;;;;;;8288653;28;20055;-65
2021/12/19 04:26:57;;;;;;;4.18;3.55;;;;;;;;;;8281917;28;20021;-65
2021/12/19 04:30:59;;;;;;;4.25;3.50;;;;;;;;;;8284059;28;20102;-65
2021/12/19 04:35:00;;;;;;;4.13;3.72;;;;;;;;;;8284169;28;20026;-65
2021/12/19 05:16:40;;;;;;;6.53;5.15;;;;;;;;;;8286642;28;20045;-65
2021/12/19 05:20:50;;;;;;;10.37;7.27;;;;;;;;;;8285040;28;20032;-65
2021/12/19 05:25:07;;;;;;;6.38;4.95;;;;;;;;;;8281761;28;20887;-65
2021/12/19 05:29:09;;;;;;;6.07;5.18;;;;;;;;;;8286245;28;20547;-65
2021/12/19 05:33:09;;;;;;;7.30;5.82;;;;;;;;;;8294944;28;20038;-65
2021/12/19 05:45:47;;;;;;;12.48;7.07;;;;;;;;;;8288460;28;20674;-65
2021/12/19 05:49:48;;;;;;;9.05;6.28;;;;;;;;;;8287647;28;20061;-65
2021/12/19 05:53:48;;;;;;;9.00;6.63;;;;;;;;;;8291511;28;20132;-65
2021/12/19 05:57:48;;;;;;;9.83;7.43;;;;;;;;;;8289460;28;20045;-65
2021/12/19 06:01:49;;;;;;;9.93;6.50;;;;;;;;;;8289403;28;20284;-65
2021/12/19 06:05:49;;;;;;;7.40;5.40;;;;;;;;;;8290024;28;20049;-65
2021/12/19 06:09:49;;;;;;;7.07;5.82;;;;;;;;;;8290476;28;20287;-65
2021/12/19 06:13:49;;;;;;;8.55;6.00;;;;;;;;;;8293244;28;20025;-65
2021/12/19 06:17:50;;;;;;;8.38;6.20;;;;;;;;;;8290003;28;20141;-65
2021/12/19 06:21:50;;;;;;;8.43;5.70;;;;;;;;;;8290949;28;20048;-65
2021/12/19 06:25:50;;;;;;;9.70;6.43;;;;;;;;;;8292256;28;20057;-65
2021/12/19 06:29:51;;;;;;;6.97;5.60;;;;;;;;;;8289390;28;21127;-65
2021/12/19 06:33:51;;;;;;;10.32;6.60;;;;;;;;;;8288305;28;20029;-65
2021/12/19 06:37:51;;;;;;;9.82;6.82;;;;;;;;;;8286075;28;20083;-65
2021/12/19 06:41:51;;;;;;;8.65;6.53;;;;;;;;;;8289916;28;20070;-65
2021/12/19 06:45:52;;;;;;;9.00;6.85;;;;;;;;;;8288790;28;20407;-65
2021/12/19 06:49:53;;;;;;;10.48;7.25;;;;;;;;;;8286600;28;20033;-65
2021/12/19 06:53:53;;;;;;;10.98;7.47;;;;;;;;;;8290711;28;20014;-65
2021/12/19 06:57:53;;;;;;;7.97;6.40;;;;;;;;;;8284550;28;20108;-65
2021/12/19 07:01:53;;;;;;;8.38;6.53;;;;;;;;;;8285353;28;20280;-65
2021/12/19 07:05:53;;;;;;;9.07;6.32;;;;;;;;;;8288912;28;20043;-65
2021/12/19 07:09:54;;;;;;;8.73;6.40;;;;;;;;;;8289188;28;20071;-65
2021/12/19 07:13:54;;;;;;;10.88;8.10;;;;;;;;;;8282356;28;20371;-65
2021/12/19 07:17:55;;;;;;;9.32;6.78;;;;;;;;;;8284525;28;20049;-65
2021/12/19 07:21:56;;;;;;;10.20;6.90;;;;;;;;;;8284195;28;20090;-65
2021/12/19 07:25:56;;;;;;;9.05;6.45;;;;;;;;;;8288581;28;20026;-65
2021/12/19 07:29:57;;;;;;;11.77;8.63;;;;;;;;;;8291212;28;20256;-65
2021/12/19 07:33:58;;;;;;;10.60;7.90;;;;;;;;;;8285123;28;20041;-65
2021/12/19 07:37:58;;;;;;;10.98;7.35;;;;;;;;;;8284455;28;20036;-65
2021/12/19 07:41:58;;;;;;;12.40;7.87;;;;;;;;;;8287318;28;20036;-65
2021/12/19 07:45:58;;;;;;;12.27;8.77;;;;;;;;;;8284318;28;20272;-65
2021/12/19 07:49:58;;;;;;;11.00;7.43;;;;;;;;;;8287597;28;20028;-65
2021/12/19 07:54:01;;;;;;;9.52;7.00;;;;;;;;;;8286274;28;20423;-65
2021/12/19 07:58:01;;;;;;;14.40;9.52;;;;;;;;;;8283500;28;20804;-65
2021/12/19 08:02:04;;;;;;;12.98;8.80;;;;;;;;;;8287227;28;20068;-65
2021/12/19 08:06:04;;;;;;;12.23;7.72;;;;;;;;;;8287316;28;20989;-65
2021/12/19 08:10:15;;;;;;;19.65;10.85;;;;;;;;;;8283804;28;20037;-65
2021/12/19 08:14:15;;;;;;;15.13;9.05;;;;;;;;;;8287867;28;20446;-65
2021/12/19 08:18:16;;;;;;;12.68;8.10;;;;;;;;;;8287631;28;20041;-65
2021/12/19 08:22:16;;;;;;;14.60;8.50;;;;;;;;;;8287296;28;20091;-65
2021/12/19 08:26:17;;;;;;;15.07;8.10;;;;;;;;;;8285595;28;20024;-65
2021/12/19 08:30:17;;;;;;;13.32;8.55;;;;;;;;;;8284538;28;20077;-65
2021/12/19 08:34:17;;;;;;;14.68;8.57;;;;;;;;;;8282277;28;20104;-65
2021/12/19 08:38:17;;;;;;;14.97;9.20;;;;;;;;;;8282890;28;20033;-65
2021/12/19 08:42:18;;;;;;;15.18;9.38;;;;;;;;;;8296522;28;20358;-65
2021/12/19 08:46:18;;;;;;;15.83;9.17;;;;;;;;;;8287244;28;20029;-65
2021/12/19 08:50:18;;;;;;;15.57;9.23;;;;;;;;;;8283327;28;20278;-66
2021/12/19 08:54:19;;;;;;;18.45;10.20;;;;;;;;;;8283569;28;21049;-65
2021/12/19 08:58:19;;;;;;;15.47;10.13;;;;;;;;;;8280897;28;20033;-66
2021/12/19 09:02:19;;;;;;;19.85;12.57;;;;;;;;;;8285977;28;20287;-65
2021/12/19 09:06:20;;;;;;;22.13;12.02;;;;;;;;;;8288334;28;20058;-65
2021/12/19 09:10:20;;;;;;;19.90;12.23;;;;;;;;;;8290588;28;20037;-65
2021/12/19 09:14:20;;;;;;;22.57;13.43;;;;;;;;;;8289847;28;20283;-65
2021/12/19 09:18:21;;;;;;;26.60;13.80;;;;;;;;;;8289179;28;20293;-65
2021/12/19 09:22:21;;;;;;;22.90;11.77;;;;;;;;;;8290931;28;20124;-66
2021/12/19 09:26:21;;;;;;;16.98;10.43;;;;;;;;;;8291536;28;20107;-66
2021/12/19 09:30:23;;;;;;;16.27;10.05;;;;;;;;;;8291393;28;20494;-66
2021/12/19 09:34:25;;;;;;;16.25;9.43;;;;;;;;;;8292269;28;20030;-67
2021/12/19 09:38:26;;;;;;;23.33;11.32;;;;;;;;;;8291148;28;20030;-65
2021/12/19 09:42:33;;;;;;;16.27;9.48;;;;;;;;;;8289921;28;20080;-65
2021/12/19 09:46:37;;;;;;;17.92;10.20;;;;;;;;;;8289515;28;20797;-65
2021/12/19 09:50:37;;;;;;;15.77;9.32;;;;;;;;;;8287695;28;20026;-65
2021/12/19 09:54:39;;;;;;;15.33;7.77;;;;;;;;;;8289869;28;20034;-65
2021/12/19 09:58:40;;;;;;;13.98;8.63;;;;;;;;;;8289823;28;20707;-65
2021/12/19 10:02:40;;;;;;;14.60;8.50;;;;;;;;;;8289966;28;20096;-65
2021/12/19 10:06:41;;;;;;;16.20;9.52;;;;;;;;;;8289406;28;20466;-65
2021/12/19 10:10:46;;;;;;;12.03;8.13;;;;;;;;;;8290519;28;20029;-65
2021/12/19 10:14:46;;;;;;;12.32;8.20;;;;;;;;;;8291952;28;20256;-65
2021/12/19 10:18:50;;;;;;;13.80;8.18;;;;;;;;;;8287148;28;20490;-66
2021/12/19 10:22:50;;;;;;;13.55;7.53;;;;;;;;;;8286800;28;20021;-66
2021/12/19 10:26:50;;;;;;;11.43;7.10;;;;;;;;;;8289980;28;20751;-66
2021/12/19 10:30:51;;;;;;;12.73;7.93;;;;;;;;;;8287838;28;21177;-66
2021/12/19 10:35:11;;;;;;;13.07;7.33;;;;;;;;;;8290238;28;20029;-66
2021/12/19 10:39:13;;;;;;;11.10;7.30;;;;;;;;;;8290451;28;21240;-66
2021/12/19 10:43:17;;;;;;;9.23;6.68;;;;;;;;;;8294344;28;20032;-66
2021/12/19 10:47:27;;;;;;;10.90;6.82;;;;;;;;;;8292036;28;20038;-66
2021/12/19 10:51:30;;;;;;;12.63;7.70;;;;;;;;;;8287339;28;20032;-66
2021/12/19 10:55:32;;;;;;;12.13;7.68;;;;;;;;;;8288623;28;20399;-66
2021/12/19 10:59:33;;;;;;;14.38;8.45;;;;;;;;;;8288275;28;20025;-66
2021/12/19 11:03:42;;;;;;;10.80;7.05;;;;;;;;;;8284549;28;20061;-66
2021/12/19 11:07:58;;;;;;;13.23;7.50;;;;;;;;;;8289931;28;20037;-65
2021/12/19 11:12:00;;;;;;;10.52;7.13;;;;;;;;;;8289057;28;20032;-66
2021/12/19 11:16:00;;;;;;;9.90;6.32;;;;;;;;;;8280497;28;20562;-66
2021/12/19 11:20:01;;;;;;;10.97;6.73;;;;;;;;;;8282692;28;20044;-65
2021/12/19 11:24:05;;;;;;;8.90;6.70;;;;;;;;;;8282404;28;20309;-65
2021/12/19 11:28:06;;;;;;;10.63;7.20;;;;;;;;;;8280438;28;20054;-66
2021/12/19 11:32:08;;;;;;;9.68;7.28;;;;;;;;;;8279848;28;20396;-66
2021/12/19 11:36:09;;;;;;;11.18;6.88;;;;;;;;;;8279214;28;20022;-66
2021/12/19 11:40:14;;;;;;;10.95;7.07;;;;;;;;;;8283052;28;20584;-66
2021/12/19 11:44:30;;;;;;;9.05;6.25;;;;;;;;;;8281371;28;20036;-66
2021/12/19 11:48:34;;;;;;;12.13;7.25;;;;;;;;;;8283019;28;20792;-66
2021/12/19 11:52:35;;;;;;;11.25;7.20;;;;;;;;;;8288646;28;20013;-66
2021/12/19 11:56:36;;;;;;;12.70;7.18;;;;;;;;;;8286174;28;20091;-66
2021/12/19 12:00:38;;;;;;;10.43;6.65;;;;;;;;;;8296237;28;20538;-66
2021/12/19 12:04:39;;;;;;;11.13;6.75;;;;;;;;;;8286946;28;20282;-66
2021/12/19 12:08:39;;;;;;;11.47;6.83;;;;;;;;;;8291305;28;20065;-66
2021/12/19 12:12:48;;;;;;;10.45;7.30;;;;;;;;;;8289540;28;20280;-66
2021/12/19 12:16:53;;;;;;;10.93;6.78;;;;;;;;;;8288044;28;20045;-66
2021/12/19 12:20:53;;;;;;;10.55;7.00;;;;;;;;;;8285203;28;20041;-66
2021/12/19 12:25:15;;;;;;;11.40;7.37;;;;;;;;;;8288790;28;20033;-66
2021/12/19 12:29:16;;;;;;;14.15;8.65;;;;;;;;;;8288550;28;20307;-66
2021/12/19 12:33:17;;;;;;;10.93;7.20;;;;;;;;;;8284984;28;20076;-66
2021/12/19 12:37:18;;;;;;;12.13;7.88;;;;;;;;;;8285360;28;20310;-66
2021/12/19 12:41:48;;;;;;;11.80;7.63;;;;;;;;;;8282780;28;20072;-66
2021/12/19 12:45:48;;;;;;;12.80;7.70;;;;;;;;;;8283829;28;20024;-66
2021/12/19 12:49:48;;;;;;;11.13;7.53;;;;;;;;;;8284880;28;20027;-66
2021/12/19 12:53:49;;;;;;;12.57;8.20;;;;;;;;;;8291187;28;20036;-66
2021/12/19 12:57:49;;;;;;;13.80;7.78;;;;;;;;;;8285621;28;20029;-66
2021/12/19 13:01:54;;;;;;;14.32;8.57;;;;;;;;;;8283626;28;20047;-66
2021/12/19 13:05:54;;;;;;;13.00;8.02;;;;;;;;;;8288282;28;20708;-66
2021/12/19 13:09:57;;;;;;;15.02;9.10;;;;;;;;;;8294623;28;20025;-66
2021/12/19 13:14:08;;;;;;;15.20;8.52;;;;;;;;;;8283667;28;20025;-66
2021/12/19 13:18:09;;;;;;;13.68;8.65;;;;;;;;;;8287081;28;20598;-66
2021/12/19 13:22:14;;;;;;;12.25;7.95;;;;;;;;;;8286423;28;20029;-66
2021/12/19 13:26:15;;;;;;;12.40;8.00;;;;;;;;;;8283272;28;20080;-66
2021/12/19 13:30:24;;;;;;;13.88;7.80;;;;;;;;;;8285875;28;20029;-66
2021/12/19 13:34:36;;;;;;;11.73;7.45;;;;;;;;;;8285336;28;20132;-66
2021/12/19 13:38:36;;;;;;;15.15;9.25;;;;;;;;;;8284327;28;20048;-66
2021/12/19 13:42:39;;;;;;;12.63;7.68;;;;;;;;;;8288693;28;20021;-66
2021/12/19 13:46:39;;;;;;;14.35;9.13;;;;;;;;;;8282942;28;20044;-66
2021/12/19 13:50:44;;;;;;;11.93;7.88;;;;;;;;;;8287632;28;20086;-66
2021/12/19 13:54:44;;;;;;;14.90;8.55;;;;;;;;;;8291466;28;20072;-65
2021/12/19 13:58:46;;;;;;;14.52;8.23;;;;;;;;;;8286872;28;20018;-65
2021/12/19 14:02:46;;;;;;;12.05;8.35;;;;;;;;;;8286937;28;20422;-65
2021/12/19 14:06:48;;;;;;;14.50;8.73;;;;;;;;;;8290838;28;20025;-65
2021/12/19 14:11:08;;;;;;;12.50;7.70;;;;;;;;;;8284673;28;20030;-65
2021/12/19 14:15:09;;;;;;;13.63;8.52;;;;;;;;;;8289777;28;20397;-66
2021/12/19 14:19:16;;;;;;;13.27;7.90;;;;;;;;;;8289156;28;20067;-66
2021/12/19 14:23:17;;;;;;;14.38;8.15;;;;;;;;;;8287772;28;20026;-65
2021/12/19 14:27:21;;;;;;;11.30;7.25;;;;;;;;;;8286009;28;20025;-65
2021/12/19 14:31:21;;;;;;;13.67;8.60;;;;;;;;;;8285381;28;20093;-65
2021/12/19 14:35:23;;;;;;;11.10;7.55;;;;;;;;;;8286462;28;20097;-66
2021/12/19 14:39:28;;;;;;;12.07;7.40;;;;;;;;;;8275092;28;20036;-66
2021/12/19 14:43:29;;;;;;;10.93;6.93;;;;;;;;;;8287159;28;20025;-66
2021/12/19 14:47:34;;;;;;;12.10;7.32;;;;;;;;;;8284136;28;20404;-66
2021/12/19 14:51:34;;;;;;;;;;;;;;;;;;8287089;28;20026;-66
2021/12/19 14:55:39;;;;;;;12.27;7.25;;;;;;;;;;8284650;28;19924;-66
2021/12/19 14:59:39;;;;;;;10.68;7.38;;;;;;;;;;8288604;28;20640;-66
2021/12/19 15:03:41;;;;;;;11.80;7.82;;;;;;;;;;8282064;28;20034;-66
2021/12/19 15:07:44;;;;;;;10.80;7.15;;;;;;;;;;8288579;28;20024;-66
2021/12/19 15:11:45;;;;;;;10.75;6.65;;;;;;;;;;8288187;28;20017;-66
2021/12/19 15:15:46;;;;;;;12.02;7.32;;;;;;;;;;8285797;28;20123;-67
2021/12/19 15:19:46;;;;;;;12.57;7.50;;;;;;;;;;8288457;28;20040;-66
2021/12/19 15:23:46;;;;;;;11.27;7.22;;;;;;;;;;8285107;28;20552;-66
2021/12/19 15:27:47;;;;;;;8.93;6.53;;;;;;;;;;8291018;28;20029;-66
2021/12/19 15:31:50;;;;;;;10.03;6.43;;;;;;;;;;8286184;28;20033;-66
2021/12/19 15:35:50;;;;;;;9.27;6.33;;;;;;;;;;8287413;28;20291;-66
2021/12/19 15:39:50;;;;;;;9.45;6.63;;;;;;;;;;8287033;28;20017;-66
2021/12/19 15:43:51;;;;;;;10.80;7.13;;;;;;;;;;8288909;28;20560;-66
2021/12/19 15:47:52;;;;;;;9.20;6.55;;;;;;;;;;8284891;28;20033;-66
2021/12/19 15:51:53;;;;;;;9.55;6.28;;;;;;;;;;8287711;28;20340;-66
2021/12/19 15:55:53;;;;;;;8.52;5.65;;;;;;;;;;8287061;28;20156;-66
2021/12/19 15:59:53;;;;;;;8.65;5.60;;;;;;;;;;8285884;28;20463;-66
2021/12/19 16:03:54;;;;;;;6.95;5.20;;;;;;;;;;8288547;28;20057;-66
2021/12/19 16:07:54;;;;;;;6.35;4.97;;;;;;;;;;8286249;28;20433;-66
2021/12/19 16:11:55;;;;;;;7.55;5.03;;;;;;;;;;8285872;28;20036;-66
2021/12/19 16:15:55;;;;;;;7.82;5.25;;;;;;;;;;8287355;28;20037;-66
2021/12/19 16:19:55;;;;;;;7.40;4.95;;;;;;;;;;8285789;28;20116;-66
2021/12/19 16:23:55;;;;;;;5.30;4.32;;;;;;;;;;8282598;28;20033;-65
2021/12/19 16:27:57;;;;;;;7.28;4.72;;;;;;;;;;8285796;28;20033;-66
2021/12/19 16:31:58;;;;;;;5.38;4.20;;;;;;;;;;8280231;28;20034;-66
2021/12/19 16:35:58;;;;;;;4.85;4.35;;;;;;;;;;8287158;28;20666;-66
2021/12/19 16:39:59;;;;;;;4.80;3.92;;;;;;;;;;8284610;28;20029;-66
2021/12/19 16:43:59;;;;;;;5.13;3.95;;;;;;;;;;8283271;28;20025;-66
2021/12/19 16:47:59;;;;;;;4.18;3.47;;;;;;;;;;8284330;28;20141;-66
2021/12/19 16:51:59;;;;;;;4.95;3.92;;;;;;;;;;8284298;28;20674;-65
2021/12/19 16:56:00;;;;;;;5.25;3.60;;;;;;;;;;8284047;28;20021;-66
2021/12/19 17:00:00;;;;;;;4.30;3.70;;;;;;;;;;8286388;28;20045;-66
2021/12/19 17:04:01;;;;;;;4.60;3.92;;;;;;;;;;8283243;28;20758;-66
2021/12/19 17:08:01;;;;;;;5.28;3.72;;;;;;;;;;8283810;28;20039;-65
2021/12/19 17:12:09;;;;;;;3.72;3.30;;;;;;;;;;8284637;28;20041;-66
2021/12/19 17:16:16;;;;;;;4.45;3.80;;;;;;;;;;8283486;28;20144;-66
2021/12/19 17:20:17;;;;;;;6.28;3.85;;;;;;;;;;8289092;28;20654;-66
2021/12/19 17:24:17;;;;;;;3.92;3.53;;;;;;;;;;8284213;28;20588;-65
2021/12/19 17:28:18;;;;;;;4.43;3.90;;;;;;;;;;8291567;28;20761;-65
2021/12/19 17:32:18;;;;;;;5.18;4.00;;;;;;;;;;8289683;28;20037;-65
2021/12/19 17:36:20;;;;;;;5.35;4.03;;;;;;;;;;8289061;28;20657;-66
2021/12/19 17:44:50;;;;;;;4.63;3.88;;;;;;;;;;8280591;28;20472;-65
2021/12/19 17:48:50;;;;;;;5.60;5.00;;;;;;;;;;8286808;28;20041;-66
2021/12/19 17:52:51;;;;;;;5.78;4.25;;;;;;;;;;8289532;28;20403;-66
2021/12/19 17:56:51;;;;;;;5.70;4.93;;;;;;;;;;8290018;28;20118;-66
2021/12/19 18:00:51;;;;;;;5.50;4.97;;;;;;;;;;8287989;28;20332;-66
2021/12/19 18:04:52;;;;;;;6.95;5.65;;;;;;;;;;8287944;28;20037;-66
2021/12/19 18:08:52;;;;;;;6.43;5.20;;;;;;;;;;8289085;28;20056;-65
2021/12/19 18:12:52;;;;;;;8.07;6.03;;;;;;;;;;8288901;28;20279;-65
2021/12/19 18:16:52;;;;;;;6.07;5.47;;;;;;;;;;8288715;28;20075;-66
2021/12/19 18:20:53;;;;;;;7.22;6.00;;;;;;;;;;8286302;28;20593;-65
2021/12/19 18:24:54;;;;;;;8.55;5.95;;;;;;;;;;8287301;28;20319;-65
2021/12/19 18:28:57;;;;;;;7.65;6.22;;;;;;;;;;8288952;28;20152;-66
2021/12/19 18:32:58;;;;;;;10.80;7.75;;;;;;;;;;8286181;28;20096;-66
2021/12/19 18:37:00;;;;;;;7.78;6.55;;;;;;;;;;8286869;28;20096;-66
2021/12/19 18:41:01;;;;;;;8.23;6.47;;;;;;;;;;8289655;28;20056;-66
2021/12/19 18:45:11;;;;;;;8.23;6.40;;;;;;;;;;8284733;28;20108;-66
2021/12/19 18:53:37;;;;;;;10.55;7.43;;;;;;;;;;8283809;28;20018;-66
2021/12/19 18:57:41;;;;;;;9.37;6.60;;;;;;;;;;8284647;28;20096;-66
2021/12/19 19:01:45;;;;;;;12.17;8.37;;;;;;;;;;8285750;28;20036;-66
2021/12/19 19:05:47;;;;;;;;;;;;;;;;;;8284543;28;20127;-65
2021/12/19 19:09:49;;;;;;;11.60;7.93;;;;;;;;;;8286603;28;20253;-68
2021/12/19 19:13:55;;;;;;;12.15;8.38;;;;;;;;;;8284866;28;20026;-66
2021/12/19 19:17:56;;;;;;;13.43;9.60;;;;;;;;;;8285692;28;20045;-66
2021/12/19 19:21:56;;;;;;;12.43;9.00;;;;;;;;;;8287000;28;20174;-65
2021/12/19 19:25:56;;;;;;;11.77;8.82;;;;;;;;;;8291522;28;20033;-65
2021/12/19 19:29:57;;;;;;;11.68;8.52;;;;;;;;;;8287393;28;20411;-65
2021/12/19 19:33:57;;;;;;;12.63;9.20;;;;;;;;;;8289871;28;20288;-66
2021/12/19 19:38:09;;;;;;;10.50;8.30;;;;;;;;;;8287851;28;21034;-65
2021/12/19 19:50:52;;;;;;;14.75;9.80;;;;;;;;;;8288462;28;20091;-66
2021/12/19 19:54:52;;;;;;;14.85;9.88;;;;;;;;;;8288209;28;20322;-66
2021/12/19 19:58:52;;;;;;;13.32;10.02;;;;;;;;;;8286498;28;20100;-66
2021/12/19 20:02:52;;;;;;;14.30;9.70;;;;;;;;;;8283710;28;20092;-66
2021/12/19 20:06:53;;;;;;;13.65;9.50;;;;;;;;;;8281103;28;20104;-66
2021/12/19 20:10:54;;;;;;;15.68;9.48;;;;;;;;;;8285337;28;20035;-66
2021/12/19 20:14:54;;;;;;;11.93;8.57;;;;;;;;;;8277029;28;20129;-65
2021/12/19 20:18:54;;;;;;;12.68;7.85;;;;;;;;;;8284551;28;21084;-65
2021/12/19 20:22:54;;;;;;;10.43;7.70;;;;;;;;;;8279911;28;20017;-65
2021/12/19 20:26:55;;;;;;;12.48;8.70;;;;;;;;;;8284089;28;20021;-65
2021/12/19 20:30:57;;;;;;;11.57;8.77;;;;;;;;;;8279457;28;20505;-65
2021/12/19 20:34:57;;;;;;;11.93;8.80;;;;;;;;;;8279057;28;20511;-65
2021/12/19 20:38:57;;;;;;;12.20;8.48;;;;;;;;;;8280607;28;20043;-65
2021/12/19 20:42:58;;;;;;;9.48;7.60;;;;;;;;;;8283341;28;20595;-65
2021/12/19 20:46:59;;;;;;;10.70;7.57;;;;;;;;;;8278808;28;20033;-65
2021/12/19 20:51:00;;;;;;;10.55;7.78;;;;;;;;;;8285884;28;20248;-65
2021/12/19 20:55:00;;;;;;;7.70;6.38;;;;;;;;;;8270475;28;20095;-65
2021/12/19 20:59:00;;;;;;;9.33;6.63;;;;;;;;;;8282685;28;20039;-65
2021/12/19 21:03:01;;;;;;;7.17;6.13;;;;;;;;;;8285435;28;20598;-65
2021/12/19 21:07:02;;;;;;;9.02;6.18;;;;;;;;;;8290438;28;20793;-65
2021/12/19 21:11:05;;;;;;;7.72;6.05;;;;;;;;;;8287724;28;20037;-65
2021/12/19 21:19:22;;;;;;;7.22;5.85;;;;;;;;;;8290107;28;20048;-65
2021/12/19 21:23:22;;;;;;;8.52;6.35;;;;;;;;;;8291257;28;20025;-65
2021/12/19 21:27:25;;;;;;;8.30;5.88;;;;;;;;;;8286767;28;20295;-65
2021/12/19 21:31:26;;;;;;;7.30;5.53;;;;;;;;;;8290131;28;20069;-65
2021/12/19 21:39:29;;;;;;;6.72;5.25;;;;;;;;;;8289295;28;21096;-65
2021/12/19 21:43:29;;;;;;;7.25;5.57;;;;;;;;;;8292501;28;20055;-65
2021/12/19 21:47:30;;;;;;;7.22;5.07;;;;;;;;;;8286653;28;20037;-65
2021/12/19 21:51:30;;;;;;;7.70;5.53;;;;;;;;;;8288357;28;20036;-65
2021/12/19 21:55:30;;;;;;;6.53;4.93;;;;;;;;;;8286917;28;20601;-65
2021/12/19 21:59:30;;;;;;;6.97;5.45;;;;;;;;;;8284191;28;20025;-65
2021/12/19 22:03:31;;;;;;;5.90;4.75;;;;;;;;;;8286454;28;20030;-65
2021/12/19 22:07:32;;;;;;;7.35;4.82;;;;;;;;;;8287156;28;20032;-65
2021/12/19 22:11:35;;;;;;;6.18;5.05;;;;;;;;;;8287813;28;20032;-65
2021/12/19 22:15:37;;;;;;;6.30;4.80;;;;;;;;;;8285903;28;20041;-65
2021/12/19 22:19:37;;;;;;;6.88;5.72;;;;;;;;;;8288690;28;20231;-65
2021/12/19 22:23:38;;;;;;;6.43;5.13;;;;;;;;;;8290543;28;20108;-65
2021/12/19 22:27:38;;;;;;;5.75;4.53;;;;;;;;;;8285745;28;20033;-65
2021/12/19 22:31:38;;;;;;;5.73;4.27;;;;;;;;;;8283503;28;20044;-65
2021/12/19 22:35:38;;;;;;;4.95;4.38;;;;;;;;;;8283598;28;20280;-65
2021/12/19 22:39:40;;;;;;;5.97;4.43;;;;;;;;;;8291245;28;20025;-65
2021/12/19 22:43:40;;;;;;;4.97;4.10;;;;;;;;;;8286844;28;20764;-65
2021/12/19 22:47:41;;;;;;;6.82;4.55;;;;;;;;;;8286356;28;20069;-65
2021/12/19 22:51:41;;;;;;;6.20;5.20;;;;;;;;;;8293555;28;20033;-65
2021/12/19 22:55:41;;;;;;;10.30;6.07;;;;;;;;;;8288760;28;20281;-65
2021/12/19 22:59:41;;;;;;;6.82;5.90;;;;;;;;;;8286363;28;20033;-65
2021/12/19 23:03:42;;;;;;;5.60;4.93;;;;;;;;;;8282818;28;20045;-65
2021/12/19 23:07:42;;;;;;;7.38;5.45;;;;;;;;;;8286270;28;20021;-65
2021/12/19 23:11:54;;;;;;;7.78;5.72;;;;;;;;;;8285916;28;20026;-65
2021/12/19 23:15:58;;;;;;;8.07;5.72;;;;;;;;;;8284822;28;20099;-65
2021/12/19 23:19:59;;;;;;;9.32;6.32;;;;;;;;;;8285432;28;20056;-65
2021/12/19 23:23:59;;;;;;;6.90;5.32;;;;;;;;;;8287936;28;20029;-65
2021/12/19 23:27:59;;;;;;;7.75;6.25;;;;;;;;;;8283726;28;20108;-65
2021/12/19 23:31:59;;;;;;;6.47;5.20;;;;;;;;;;8287526;28;20980;-65
2021/12/19 23:36:12;;;;;;;5.10;4.50;;;;;;;;;;8286740;28;20873;-65
2021/12/19 23:40:32;;;;;;;6.28;5.10;;;;;;;;;;8290201;28;20291;-65
2021/12/19 23:48:51;;;;;;;5.78;4.75;;;;;;;;;;8286386;28;21335;-65
2021/12/19 23:52:52;;;;;;;5.35;4.00;;;;;;;;;;8286638;28;20033;-65
2021/12/19 23:56:53;;;;;;;6.03;4.75;;;;;;;;;;8287295;28;20132;-65
